createdAt,value
2019-05-01T00:00:21.219Z,100991.73
2019-05-01T00:02:50.605Z,100986.61
2019-05-01T00:05:24.587Z,100990.22
2019-05-01T00:07:54.090Z,100991.96
2019-05-01T00:10:23.745Z,100989.28
2019-05-01T00:12:53.224Z,100982.21
2019-05-01T00:15:24.413Z,100987.20
2019-05-01T00:17:53.943Z,100988.64
2019-05-01T00:20:23.577Z,100994.42
2019-05-01T00:22:53.062Z,100989.80
2019-05-01T00:25:22.539Z,100981.86
2019-05-01T00:27:52.062Z,100976.98
2019-05-01T00:30:29.637Z,100983.34
2019-05-01T00:32:53.981Z,100988.07
2019-05-01T00:35:23.540Z,100983.45
2019-05-01T00:37:53.009Z,100976.95
2019-05-01T00:40:22.587Z,100977.02
2019-05-01T00:42:52.043Z,100972.69
2019-05-01T00:45:21.514Z,100973.88
2019-05-01T00:47:51.021Z,100970.59
2019-05-01T00:50:20.547Z,100965.17
2019-05-01T00:52:50.116Z,100966.59
2019-05-01T00:55:37.062Z,100965.28
2019-05-01T00:58:24.672Z,100958.20
2019-05-01T01:01:11.870Z,100964.27
2019-05-01T01:03:41.934Z,100965.42
2019-05-01T01:06:11.606Z,100968.77
2019-05-01T01:08:41.155Z,100962.53
2019-05-01T01:11:10.620Z,100958.48
2019-05-01T01:13:40.123Z,100962.63
2019-05-01T01:16:09.685Z,100960.75
2019-05-01T01:18:39.173Z,100956.92
2019-05-01T01:21:08.804Z,100952.88
2019-05-01T01:23:38.830Z,100956.45
2019-05-01T01:26:08.406Z,100956.74
2019-05-01T01:28:37.959Z,100951.33
2019-05-01T01:31:07.524Z,100944.22
2019-05-01T01:33:37.062Z,100940.71
2019-05-01T01:36:06.647Z,100942.95
2019-05-01T01:38:36.735Z,100944.34
2019-05-01T01:41:06.451Z,100941.67
2019-05-01T01:43:40.658Z,100938.42
2019-05-01T01:46:20.757Z,100938.17
2019-05-01T01:48:50.374Z,100940.15
2019-05-01T01:51:20.704Z,100939.61
2019-05-01T01:53:51.180Z,100945.16
2019-05-01T01:56:21.312Z,100934.22
2019-05-01T01:58:51.118Z,100934.28
2019-05-01T02:01:25.179Z,100933.77
2019-05-01T02:03:59.405Z,100936.80
2019-05-01T02:06:29.003Z,100942.03
2019-05-01T02:08:58.700Z,100926.77
2019-05-01T02:11:28.160Z,100932.78
2019-05-01T02:13:58.111Z,100928.48
2019-05-01T02:16:27.804Z,100923.55
2019-05-01T02:18:57.534Z,100922.23
2019-05-01T02:21:26.992Z,100918.16
2019-05-01T02:23:56.670Z,100906.69
2019-05-01T02:26:28.244Z,100921.50
2019-05-01T02:29:12.842Z,100917.74
2019-05-01T02:31:47.260Z,100920.23
2019-05-01T02:34:18.482Z,100913.66
2019-05-01T02:36:50.674Z,100918.63
2019-05-01T02:39:21.697Z,100916.21
2019-05-01T02:41:53.666Z,100917.32
2019-05-01T02:44:30.788Z,100915.44
2019-05-01T02:47:04.961Z,100913.81
2019-05-01T02:49:43.132Z,100913.30
2019-05-01T02:52:13.997Z,100912.79
2019-05-01T02:54:46.386Z,100901.06
2019-05-01T02:57:19.002Z,100905.17
2019-05-01T02:59:52.255Z,100905.46
2019-05-01T03:02:25.062Z,100910.69
2019-05-01T03:04:55.740Z,100906.89
2019-05-01T03:07:28.702Z,100909.62
2019-05-01T03:09:58.163Z,100898.42
2019-05-01T03:12:30.951Z,100902.27
2019-05-01T03:15:04.198Z,100899.53
2019-05-01T03:17:54.139Z,100896.80
2019-05-01T03:20:35.842Z,100908.03
2019-05-01T03:23:16.382Z,100898.45
2019-05-01T03:25:46.019Z,100899.56
2019-05-01T03:28:16.014Z,100890.77
2019-05-01T03:30:45.627Z,100897.08
2019-05-01T03:33:15.190Z,100895.42
2019-05-01T03:35:45.087Z,100892.95
2019-05-01T03:38:14.839Z,100892.59
2019-05-01T03:40:44.680Z,100891.48
2019-05-01T03:43:14.321Z,100894.48
2019-05-01T03:45:44.545Z,100897.47
2019-05-01T03:48:14.344Z,100895.78
2019-05-01T03:50:46.729Z,100889.20
2019-05-01T03:53:15.361Z,100886.42
2019-05-01T03:55:44.918Z,100886.42
2019-05-01T03:58:14.559Z,100883.94
2019-05-01T04:03:44.830Z,100887.19
2019-05-01T04:06:14.839Z,100877.86
2019-05-01T04:08:44.868Z,100883.02
2019-05-01T04:11:14.606Z,100884.36
2019-05-01T04:13:44.463Z,100876.65
2019-05-01T04:16:14.864Z,100875.47
2019-05-01T04:18:44.532Z,100885.28
2019-05-01T04:21:14.099Z,100886.02
2019-05-01T04:23:43.765Z,100888.66
2019-05-01T04:26:13.594Z,100893.72
2019-05-01T04:28:43.099Z,100889.25
2019-05-01T04:31:12.425Z,100895.97
2019-05-01T04:33:43.831Z,100894.20
2019-05-01T04:36:18.063Z,100895.98
2019-05-01T04:38:47.801Z,100892.81
2019-05-01T04:41:17.340Z,100892.16
2019-05-01T04:43:46.958Z,100899.66
2019-05-01T04:46:16.730Z,100904.97
2019-05-01T04:48:46.306Z,100895.77
2019-05-01T04:51:16.001Z,100897.56
2019-05-01T04:53:45.917Z,100900.95
2019-05-01T04:56:15.526Z,100897.47
2019-05-01T04:58:45.149Z,100898.36
2019-05-01T05:01:15.041Z,100901.73
2019-05-01T05:03:46.688Z,100907.86
2019-05-01T05:06:16.297Z,100895.88
2019-05-01T05:08:46.017Z,100898.20
2019-05-01T05:11:17.764Z,100893.66
2019-05-01T05:14:05.173Z,100896.53
2019-05-01T05:16:45.143Z,100894.45
2019-05-01T05:19:15.172Z,100898.40
2019-05-01T05:21:44.706Z,100894.15
2019-05-01T05:24:14.691Z,100892.39
2019-05-01T05:26:44.397Z,100897.27
2019-05-01T05:29:16.101Z,100900.76
2019-05-01T05:31:46.719Z,100897.38
2019-05-01T05:34:20.446Z,100900.24
2019-05-01T05:36:53.485Z,100903.98
2019-05-01T05:39:26.821Z,100891.18
2019-05-01T05:41:57.419Z,100896.78
2019-05-01T05:44:27.223Z,100902.97
2019-05-01T05:46:56.780Z,100903.33
2019-05-01T05:49:26.617Z,100899.56
2019-05-01T05:52:01.118Z,100898.56
2019-05-01T05:54:52.545Z,100897.23
2019-05-01T05:57:30.015Z,100900.34
2019-05-01T06:00:11.541Z,100900.13
2019-05-01T06:02:48.032Z,100897.23
2019-05-01T06:05:41.619Z,100905.98
2019-05-01T06:08:13.165Z,100897.97
2019-05-01T06:10:53.640Z,100896.26
2019-05-01T06:13:42.868Z,100895.70
2019-05-01T06:16:16.276Z,100896.20
2019-05-01T06:18:50.361Z,100900.17
2019-05-01T06:21:28.106Z,100898.31
2019-05-01T06:24:06.313Z,100894.80
2019-05-01T06:26:37.441Z,100888.73
2019-05-01T06:29:06.533Z,100898.13
2019-05-01T06:31:36.865Z,100904.47
2019-05-01T06:34:06.498Z,100902.30
2019-05-01T06:36:36.105Z,100899.52
2019-05-01T06:39:11.733Z,100906.42
2019-05-01T06:41:42.826Z,100912.50
2019-05-01T06:44:15.423Z,100907.30
2019-05-01T06:46:49.488Z,100907.86
2019-05-01T06:49:29.442Z,100898.32
2019-05-01T06:51:58.285Z,100894.81
2019-05-01T06:54:30.423Z,100898.22
2019-05-01T06:57:02.112Z,100899.19
2019-05-01T06:59:33.361Z,100891.64
2019-05-01T07:02:03.607Z,100896.11
2019-05-01T07:04:38.103Z,100900.97
2019-05-01T07:07:08.230Z,100897.55
2019-05-01T07:09:37.971Z,100901.03
2019-05-01T07:12:09.572Z,100905.89
2019-05-01T07:14:39.262Z,100909.13
2019-05-01T07:17:13.462Z,100919.02
2019-05-01T07:19:50.920Z,100917.81
2019-05-01T07:22:21.584Z,100917.70
2019-05-01T07:24:51.535Z,100915.67
2019-05-01T07:27:23.742Z,100916.15
2019-05-01T07:29:54.351Z,100912.48
2019-05-01T07:32:24.032Z,100901.94
2019-05-01T07:34:56.938Z,100908.45
2019-05-01T07:37:25.875Z,100911.34
2019-05-01T07:39:56.612Z,100903.70
2019-05-01T07:42:27.921Z,100903.04
2019-05-01T07:45:03.951Z,100905.03
2019-05-01T07:47:38.103Z,100909.33
2019-05-01T07:50:14.109Z,100910.28
2019-05-01T07:52:47.795Z,100907.09
2019-05-01T07:55:18.179Z,100910.49
2019-05-01T07:57:47.144Z,100905.34
2019-05-01T08:00:18.418Z,100911.81
2019-05-01T08:02:48.182Z,100911.97
2019-05-01T08:05:17.742Z,100908.20
2019-05-01T08:07:47.259Z,100914.42
2019-05-01T08:10:21.092Z,100915.97
2019-05-01T08:12:48.186Z,100907.17
2019-05-01T08:15:17.828Z,100905.01
2019-05-01T08:17:48.754Z,100910.92
2019-05-01T08:20:20.560Z,100909.34
2019-05-01T08:22:50.048Z,100910.05
2019-05-01T08:25:19.562Z,100914.91
2019-05-01T08:27:56.341Z,100916.44
2019-05-01T08:30:26.026Z,100912.19
2019-05-01T08:32:59.820Z,100913.12
2019-05-01T08:35:31.852Z,100921.56
2019-05-01T08:38:01.273Z,100921.72
2019-05-01T08:40:30.829Z,100922.19
2019-05-01T08:43:00.327Z,100919.90
2019-05-01T08:45:29.692Z,100926.05
2019-05-01T08:48:01.511Z,100914.32
2019-05-01T08:50:31.035Z,100916.88
2019-05-01T08:53:00.635Z,100917.50
2019-05-01T08:55:30.233Z,100920.05
2019-05-01T08:57:59.731Z,100920.99
2019-05-01T09:00:30.919Z,100916.41
2019-05-01T09:03:08.111Z,100915.95
2019-05-01T09:05:33.918Z,100914.59
2019-05-01T09:08:03.063Z,100912.21
2019-05-01T09:10:32.619Z,100908.88
2019-05-01T09:13:02.117Z,100907.28
2019-05-01T09:15:31.729Z,100905.94
2019-05-01T09:18:01.433Z,100904.91
2019-05-01T09:20:32.204Z,100907.22
2019-05-01T09:23:01.723Z,100901.82
2019-05-01T09:25:38.621Z,100892.71
2019-05-01T09:28:12.531Z,100894.70
2019-05-01T09:30:43.820Z,100900.24
2019-05-01T09:33:13.331Z,100893.33
2019-05-01T09:35:45.400Z,100895.88
2019-05-01T09:38:14.172Z,100893.94
2019-05-01T09:40:43.709Z,100896.61
2019-05-01T09:43:13.369Z,100893.64
2019-05-01T09:45:42.900Z,100890.87
2019-05-01T09:48:12.550Z,100893.73
2019-05-01T09:50:43.786Z,100900.20
2019-05-01T09:53:17.315Z,100897.55
2019-05-01T09:55:57.429Z,100896.73
2019-05-01T09:58:27.007Z,100891.32
2019-05-01T10:00:58.231Z,100897.78
2019-05-01T10:03:27.850Z,100894.31
2019-05-01T10:05:57.370Z,100890.84
2019-05-01T10:08:26.850Z,100886.45
2019-05-01T10:10:59.837Z,100887.03
2019-05-01T10:13:27.567Z,100880.91
2019-05-01T10:15:57.050Z,100876.74
2019-05-01T10:18:26.564Z,100875.91
2019-05-01T10:20:56.037Z,100875.55
2019-05-01T10:23:25.547Z,100873.55
2019-05-01T10:25:56.681Z,100872.06
2019-05-01T10:28:40.511Z,100868.95
2019-05-01T10:31:23.640Z,100870.09
2019-05-01T10:33:54.826Z,100866.02
2019-05-01T10:36:31.657Z,100864.14
2019-05-01T10:39:01.272Z,100861.72
2019-05-01T10:41:30.803Z,100856.02
2019-05-01T10:44:00.295Z,100853.03
2019-05-01T10:46:29.803Z,100853.25
2019-05-01T10:48:59.375Z,100843.52
2019-05-01T10:51:28.896Z,100842.31
2019-05-01T10:53:58.409Z,100838.57
2019-05-01T10:56:27.904Z,100837.37
2019-05-01T10:58:57.481Z,100839.88
2019-05-01T11:01:28.587Z,100835.67
2019-05-01T11:03:58.186Z,100836.95
2019-05-01T11:06:27.715Z,100827.08
2019-05-01T11:08:57.227Z,100826.73
2019-05-01T11:11:26.714Z,100820.09
2019-05-01T11:13:56.256Z,100824.24
2019-05-01T11:16:25.869Z,100817.48
2019-05-01T11:19:14.783Z,100813.55
2019-05-01T11:21:44.331Z,100813.82
2019-05-01T11:24:13.909Z,100810.92
2019-05-01T11:26:43.387Z,100807.84
2019-05-01T11:29:12.991Z,100805.19
2019-05-01T11:31:50.352Z,100799.71
2019-05-01T11:34:37.887Z,100800.17
2019-05-01T11:37:07.217Z,100793.64
2019-05-01T11:39:45.303Z,100794.70
2019-05-01T11:42:18.748Z,100794.89
2019-05-01T11:44:48.326Z,100781.20
2019-05-01T11:47:17.877Z,100789.45
2019-05-01T11:49:47.388Z,100782.23
2019-05-01T11:52:17.021Z,100782.88
2019-05-01T11:54:46.535Z,100780.01
2019-05-01T11:57:16.050Z,100777.57
2019-05-01T11:59:45.522Z,100772.16
2019-05-01T12:02:15.179Z,100770.36
2019-05-01T12:04:44.673Z,100767.20
2019-05-01T12:07:14.173Z,100769.07
2019-05-01T12:09:43.673Z,100761.93
2019-05-01T12:12:14.895Z,100756.41
2019-05-01T12:14:44.481Z,100752.97
2019-05-01T12:17:21.344Z,100758.64
2019-05-01T12:19:50.838Z,100754.34
2019-05-01T12:22:20.329Z,100754.98
2019-05-01T12:24:49.834Z,100756.38
2019-05-01T12:27:19.395Z,100748.63
2019-05-01T12:29:48.894Z,100745.02
2019-05-01T12:32:18.377Z,100743.19
2019-05-01T12:34:47.922Z,100739.98
2019-05-01T12:37:24.516Z,100739.98
2019-05-01T12:39:54.095Z,100737.62
2019-05-01T12:42:25.236Z,100739.86
2019-05-01T12:44:54.714Z,100739.10
2019-05-01T12:47:42.105Z,100735.98
2019-05-01T12:50:12.602Z,100729.70
2019-05-01T12:52:44.386Z,100729.00
2019-05-01T12:58:10.640Z,100719.55
2019-05-01T13:00:50.927Z,100728.31
2019-05-01T13:03:20.526Z,100725.67
2019-05-01T13:05:50.134Z,100719.09
2019-05-01T13:08:19.812Z,100720.28
2019-05-01T13:10:50.920Z,100715.48
2019-05-01T13:13:20.460Z,100723.06
2019-05-01T13:16:09.459Z,100714.31
2019-05-01T13:18:38.929Z,100715.70
2019-05-01T13:21:27.871Z,100706.28
2019-05-01T13:23:57.381Z,100711.02
2019-05-01T13:26:40.767Z,100696.64
2019-05-01T13:29:17.782Z,100698.25
2019-05-01T13:31:51.693Z,100694.88
2019-05-01T13:34:21.173Z,100684.73
2019-05-01T13:37:02.320Z,100682.79
2019-05-01T13:39:22.030Z,100678.05
2019-05-01T13:41:51.583Z,100679.88
2019-05-01T13:44:21.193Z,100670.11
2019-05-01T13:46:50.646Z,100664.53
2019-05-01T13:49:20.170Z,100659.22
2019-05-01T13:51:49.704Z,100665.43
2019-05-01T13:54:19.323Z,100660.12
2019-05-01T13:56:49.035Z,100652.80
2019-05-01T13:59:18.633Z,100649.45
2019-05-01T14:01:48.135Z,100646.47
2019-05-01T14:04:21.519Z,100642.89
2019-05-01T14:06:50.246Z,100642.69
2019-05-01T14:09:21.542Z,100641.29
2019-05-01T14:11:51.135Z,100637.48
2019-05-01T14:14:20.642Z,100634.67
2019-05-01T14:16:50.219Z,100636.64
2019-05-01T14:19:19.746Z,100630.91
2019-05-01T14:22:02.680Z,100626.37
2019-05-01T14:24:33.878Z,100616.46
2019-05-01T14:27:03.421Z,100616.94
2019-05-01T14:29:32.956Z,100605.63
2019-05-01T14:32:02.429Z,100612.50
2019-05-01T14:34:31.944Z,100610.74
2019-05-01T14:37:01.521Z,100599.99
2019-05-01T14:39:31.045Z,100604.02
2019-05-01T14:42:00.554Z,100607.05
2019-05-01T14:44:36.531Z,100603.91
2019-05-01T14:47:01.283Z,100601.53
2019-05-01T14:49:30.796Z,100593.41
2019-05-01T14:52:00.299Z,100589.06
2019-05-01T14:54:29.938Z,100593.49
2019-05-01T14:56:59.446Z,100595.30
2019-05-01T14:59:29.069Z,100585.74
2019-05-01T15:01:58.638Z,100588.57
2019-05-01T15:04:28.220Z,100581.02
2019-05-01T15:06:58.379Z,100577.61
2019-05-01T15:09:28.033Z,100576.21
2019-05-01T15:11:57.608Z,100577.41
2019-05-01T15:14:31.196Z,100578.39
2019-05-01T15:19:57.552Z,100578.19
2019-05-01T15:22:27.221Z,100569.43
2019-05-01T15:24:56.710Z,100567.05
2019-05-01T15:27:26.291Z,100566.44
2019-05-01T15:29:55.918Z,100560.84
2019-05-01T15:32:25.564Z,100561.46
2019-05-01T15:34:55.036Z,100564.25
2019-05-01T15:37:24.608Z,100564.42
2019-05-01T15:39:55.943Z,100560.81
2019-05-01T15:42:32.726Z,100552.02
2019-05-01T15:45:02.393Z,100551.60
2019-05-01T15:47:31.915Z,100548.81
2019-05-01T15:50:01.454Z,100545.00
2019-05-01T15:52:30.963Z,100542.20
2019-05-01T15:55:00.475Z,100538.02
2019-05-01T15:57:30.014Z,100540.81
2019-05-01T15:59:59.714Z,100537.41
2019-05-01T16:02:29.337Z,100535.80
2019-05-01T16:05:18.370Z,100529.40
2019-05-01T16:07:48.398Z,100530.22
2019-05-01T16:10:19.705Z,100530.42
2019-05-01T16:12:56.901Z,100528.24
2019-05-01T16:15:33.962Z,100524.67
2019-05-01T16:18:04.668Z,100523.48
2019-05-01T16:20:34.256Z,100520.72
2019-05-01T16:23:03.817Z,100523.14
2019-05-01T16:25:33.390Z,100523.20
2019-05-01T16:28:03.025Z,100514.47
2019-05-01T16:30:32.666Z,100514.60
2019-05-01T16:33:02.306Z,100515.46
2019-05-01T16:35:31.816Z,100510.52
2019-05-01T16:38:23.314Z,100509.17
2019-05-01T16:41:03.519Z,100500.95
2019-05-01T16:43:33.091Z,100505.50
2019-05-01T16:46:02.782Z,100499.59
2019-05-01T16:48:32.293Z,100497.05
2019-05-01T16:51:01.836Z,100491.53
2019-05-01T16:53:31.342Z,100488.72
2019-05-01T16:56:00.950Z,100485.38
2019-05-01T16:58:32.038Z,100488.02
2019-05-01T17:01:08.272Z,100491.72
2019-05-01T17:03:55.486Z,100491.77
2019-05-01T17:06:30.502Z,100492.12
2019-05-01T17:09:13.719Z,100488.84
2019-05-01T17:11:43.261Z,100483.12
2019-05-01T17:14:13.441Z,100474.16
2019-05-01T17:16:42.994Z,100471.06
2019-05-01T17:19:12.709Z,100466.03
2019-05-01T17:21:42.264Z,100470.18
2019-05-01T17:24:11.877Z,100470.87
2019-05-01T17:26:41.371Z,100467.77
2019-05-01T17:29:10.958Z,100465.47
2019-05-01T17:31:40.446Z,100472.83
2019-05-01T17:34:10.067Z,100466.50
2019-05-01T17:36:39.725Z,100462.08
2019-05-01T17:39:09.647Z,100468.45
2019-05-01T17:41:39.249Z,100464.62
2019-05-01T17:44:08.783Z,100458.62
2019-05-01T17:46:41.958Z,100462.08
2019-05-01T17:49:10.611Z,100461.53
2019-05-01T17:51:42.741Z,100465.47
2019-05-01T17:54:12.901Z,100462.40
2019-05-01T17:56:42.578Z,100466.73
2019-05-01T17:59:16.115Z,100460.09
2019-05-01T18:01:47.270Z,100468.84
2019-05-01T18:04:21.256Z,100468.19
2019-05-01T18:06:52.132Z,100462.52
2019-05-01T18:09:21.912Z,100467.28
2019-05-01T18:11:52.369Z,100473.53
2019-05-01T18:14:22.755Z,100464.98
2019-05-01T18:16:52.346Z,100467.96
2019-05-01T18:19:21.901Z,100467.15
2019-05-01T18:21:53.643Z,100473.47
2019-05-01T18:24:39.082Z,100480.77
2019-05-01T18:27:19.150Z,100475.05
2019-05-01T18:29:54.591Z,100472.49
2019-05-01T18:32:28.465Z,100473.03
2019-05-01T18:34:58.018Z,100473.00
2019-05-01T18:37:31.263Z,100473.89
2019-05-01T18:40:00.503Z,100481.48
2019-05-01T18:42:30.152Z,100478.55
2019-05-01T18:44:59.685Z,100480.16
2019-05-01T18:47:29.613Z,100486.49
2019-05-01T18:49:59.174Z,100483.48
2019-05-01T18:52:28.893Z,100480.33
2019-05-01T18:54:58.435Z,100481.29
2019-05-01T18:57:27.992Z,100474.65
2019-05-01T18:59:57.489Z,100477.77
2019-05-01T19:02:27.001Z,100479.31
2019-05-01T19:04:56.647Z,100476.67
2019-05-01T19:07:26.376Z,100485.78
2019-05-01T19:09:55.891Z,100484.11
2019-05-01T19:12:25.478Z,100487.41
2019-05-01T19:14:54.990Z,100479.27
2019-05-01T19:17:24.629Z,100481.00
2019-05-01T19:19:54.190Z,100487.57
2019-05-01T19:22:23.858Z,100481.23
2019-05-01T19:24:53.439Z,100486.39
2019-05-01T19:27:24.391Z,100485.28
2019-05-01T19:29:57.674Z,100484.45
2019-05-01T19:32:25.818Z,100489.59
2019-05-01T19:34:55.448Z,100491.25
2019-05-01T19:37:28.198Z,100486.88
2019-05-01T19:39:56.244Z,100492.45
2019-05-01T19:42:25.845Z,100488.34
2019-05-01T19:44:56.304Z,100480.30
2019-05-01T19:47:26.711Z,100488.84
2019-05-01T19:49:56.352Z,100488.14
2019-05-01T19:52:25.974Z,100487.19
2019-05-01T19:54:55.475Z,100491.80
2019-05-01T19:57:25.040Z,100492.27
2019-05-01T19:59:54.575Z,100485.59
2019-05-01T20:02:24.287Z,100486.93
2019-05-01T20:04:53.750Z,100485.08
2019-05-01T20:07:23.353Z,100485.97
2019-05-01T20:09:57.185Z,100482.36
2019-05-01T20:12:24.280Z,100484.77
2019-05-01T20:14:54.911Z,100481.02
2019-05-01T20:17:24.425Z,100480.77
2019-05-01T20:19:53.974Z,100479.14
2019-05-01T20:22:23.558Z,100477.73
2019-05-01T20:24:53.124Z,100487.13
2019-05-01T20:27:22.637Z,100487.86
2019-05-01T20:29:52.286Z,100483.70
2019-05-01T20:32:26.380Z,100476.22
2019-05-01T20:34:54.035Z,100480.53
2019-05-01T20:37:23.747Z,100486.48
2019-05-01T20:39:53.252Z,100476.56
2019-05-01T20:42:22.919Z,100478.38
2019-05-01T20:45:03.944Z,100475.59
2019-05-01T20:47:34.984Z,100475.23
2019-05-01T20:49:55.057Z,100469.66
2019-05-01T20:52:24.629Z,100469.86
2019-05-01T20:54:54.168Z,100470.64
2019-05-01T21:00:38.978Z,100469.06
2019-05-01T21:03:08.503Z,100475.08
2019-05-01T21:05:39.695Z,100468.39
2019-05-01T21:08:14.786Z,100472.70
2019-05-01T21:10:52.783Z,100466.61
2019-05-01T21:13:23.249Z,100467.34
2019-05-01T21:15:56.418Z,100467.77
2019-05-01T21:18:25.938Z,100468.75
2019-05-01T21:20:55.602Z,100461.50
2019-05-01T21:23:25.307Z,100463.30
2019-05-01T21:25:54.879Z,100462.35
2019-05-01T21:28:24.356Z,100461.40
2019-05-01T21:30:54.468Z,100455.26
2019-05-01T21:33:24.263Z,100462.24
2019-05-01T21:35:53.955Z,100462.08
2019-05-01T21:38:23.427Z,100460.30
2019-05-01T21:40:53.851Z,100463.71
2019-05-01T21:43:23.598Z,100465.74
2019-05-01T21:45:53.513Z,100461.48
2019-05-01T21:48:23.262Z,100461.31
2019-05-01T21:50:53.746Z,100454.03
2019-05-01T21:53:24.030Z,100455.72
2019-05-01T21:55:53.612Z,100453.63
2019-05-01T21:58:28.199Z,100453.16
2019-05-01T22:00:59.195Z,100455.73
2019-05-01T22:03:26.460Z,100452.50
2019-05-01T22:05:55.970Z,100455.91
2019-05-01T22:08:26.171Z,100455.19
2019-05-01T22:10:57.599Z,100456.19
2019-05-01T22:13:27.220Z,100464.50
2019-05-01T22:15:58.369Z,100461.61
2019-05-01T22:18:29.780Z,100463.37
2019-05-01T22:21:17.296Z,100458.28
2019-05-01T22:24:04.829Z,100461.92
2019-05-01T22:26:36.001Z,100459.58
2019-05-01T22:29:07.297Z,100453.70
2019-05-01T22:31:36.561Z,100446.66
2019-05-01T22:34:07.987Z,100449.82
2019-05-01T22:36:37.524Z,100443.05
2019-05-01T22:39:07.971Z,100447.00
2019-05-01T22:41:37.526Z,100447.65
2019-05-01T22:44:07.150Z,100442.80
2019-05-01T22:46:39.142Z,100448.94
2019-05-01T22:49:07.963Z,100442.73
2019-05-01T22:51:37.465Z,100442.00
2019-05-01T22:54:07.001Z,100441.03
2019-05-01T22:56:36.489Z,100439.97
2019-05-01T22:59:06.242Z,100437.86
2019-05-01T23:01:35.811Z,100436.34
2019-05-01T23:04:06.254Z,100427.35
2019-05-01T23:06:37.226Z,100427.45
2019-05-01T23:09:09.268Z,100428.89
2019-05-01T23:11:40.879Z,100425.17
2019-05-01T23:14:10.937Z,100425.81
2019-05-01T23:16:42.137Z,100430.81
2019-05-01T23:19:11.639Z,100420.23
2019-05-01T23:21:41.213Z,100420.88
2019-05-01T23:24:10.668Z,100420.16
2019-05-01T23:26:40.131Z,100420.56
2019-05-01T23:29:09.641Z,100421.44
2019-05-01T23:31:39.472Z,100419.34
2019-05-01T23:34:08.934Z,100419.98
2019-05-01T23:36:38.410Z,100424.16
2019-05-01T23:39:08.210Z,100415.53
2019-05-01T23:41:45.739Z,100423.83
2019-05-01T23:44:09.014Z,100414.56
2019-05-01T23:46:38.488Z,100411.63
2019-05-01T23:49:08.039Z,100412.84
2019-05-01T23:51:37.516Z,100405.23
2019-05-01T23:54:07.079Z,100404.50
2019-05-01T23:56:36.545Z,100402.64
2019-05-01T23:59:06.359Z,100397.55
